Sheridan, WY (82801)

12:31 AM MDT on April 28, 2017 (GMT -0600)
South Sheridan | | Change Station
Active Advisory: Winter Storm Warning

Elev 3770 ft 44.79 °N, 106.95 °W | Updated 8 seconds ago

Light Rain
Light Rain
33.8 °F
Feels Like 34 °F
N
0.0
Wind Variable Wind from WSW
Gusts 0.0 mph

Today
High -- | Low -- °F
--% Chance of Precip.
Yesterday
High -- | Low -- °F
Precip. -- in
Pressure 29.76 in
Visibility 10.0 miles
Clouds Scattered Clouds 1300 ft
Scattered Clouds 1800 ft
Overcast 2400 ft
Windchill 34 °F
Dew Point 33 °F
Humidity 98%
Rainfall 0.04 in
Snow Depth Not available.
6:01 AM 8:09 PM
Waxing Crescent, 5% visible
SPECI KSHR 280623Z AUTO 28008KT 10SM -RA SCT013 SCT018 OVC024 01/00 A2976 RMK AO2 P0001 T00110000
Pressure 29.76 in
Visibility 10.0 miles
Clouds Scattered Clouds 1300 ft
Scattered Clouds 1800 ft
Overcast 2400 ft
Windchill 34 °F
Dew Point 33 °F
Humidity 98%
Rainfall 0.04 in
Snow Depth Not available.
6:01 AM 8:09 PM
Waxing Crescent, 5% visible
SPECI KSHR 280623Z AUTO 28008KT 10SM -RA SCT013 SCT018 OVC024 01/00 A2976 RMK AO2 P0001 T00110000

Get Your Daily Forecast Email!

Thanks for signing up!

Be on the lookout for a verification email in your inbox.

You'll start receiving severe weather alerts in your inbox..

×

10-Day Weather Forecast

Almanac

Astronomy

Apr. 28, 2017 Rise Set
Actual Time
Civil Twilight
Nautical Twilight
Astronomical Twilight
Moon
Length of Visible Light
Length of Day
Tomorrow will be .
, % of the Moon is Illuminated

Today's Extremes

State Highs State Lows

Community

WunderPhotos

WunderBlog® & News

Nearby

Air Quality

  Air Quality AQ Index Pollutant
Not available.

Snow Depth

Station Depth Elevation

Earthquake Activity

City Distance Mag. Time & Date
Minimum magnitude displayed is 2.5.

Coastal Water Temperatures

Place Temperature

Stations

Nearby Weather Stations

Station Location Temp. Windchill Dew Point Humidity Wind Precip. Elev Updated Type
                   

Watches & Warnings

Winter Storm Warning
Issued: 9:11 PM MDT Apr. 27, 2017 – National Weather Service

... Winter Storm Warning remains in effect until midnight MDT
Friday night...

* impacts... heavy, wet snow will cause difficult travel conditions
due to poor visibility and snow packed or slushy roads. This
includes Interstate 90. Power outages are possible.

* Timing... snow will continue overnight, heavy at times. Snow will
taper off late in the day Friday. Snowfall accumulation is
expected to be greatest tonight through Friday morning.

* Snow accumulation... 6 to 10 inches for the foothills and
areas west of Interstate 90, with 4 to 6 inches for eastern
sections, including the city of Sheridan.

Precautionary/preparedness actions...

A Winter Storm Warning means a significant amount of snow is
expected or occurring. Visibility will be quite poor at times
making travel very hazardous.